createdAt,value
2019-02-25T00:00:01.645Z,10.03
2019-02-25T00:01:07.118Z,9.83
2019-02-25T00:02:12.440Z,10.40
2019-02-25T00:03:16.082Z,9.93
2019-02-25T00:04:19.676Z,9.85
2019-02-25T00:05:23.262Z,9.60
2019-02-25T00:06:26.989Z,9.40
2019-02-25T00:07:30.594Z,10.30
2019-02-25T00:08:34.224Z,9.00
2019-02-25T00:09:37.861Z,9.15
2019-02-25T00:10:41.482Z,9.13
2019-02-25T00:11:45.115Z,10.55
2019-02-25T00:12:48.713Z,9.93
2019-02-25T00:13:52.316Z,8.90
2019-02-25T00:14:55.899Z,9.23
2019-02-25T00:15:59.486Z,9.10
2019-02-25T00:17:03.176Z,9.40
2019-02-25T00:18:06.984Z,9.08
2019-02-25T00:19:10.588Z,8.85
2019-02-25T00:20:14.366Z,9.20
2019-02-25T00:21:17.955Z,9.30
2019-02-25T00:22:21.546Z,9.10
2019-02-25T00:23:25.202Z,9.80
2019-02-25T00:24:28.785Z,8.53
2019-02-25T00:25:32.485Z,8.95
2019-02-25T00:26:36.248Z,9.85
2019-02-25T00:27:39.792Z,9.00
2019-02-25T00:28:43.419Z,8.80
2019-02-25T00:29:47.244Z,8.98
2019-02-25T00:30:50.906Z,8.78
2019-02-25T00:31:54.487Z,8.83
2019-02-25T00:32:58.098Z,8.55
2019-02-25T00:34:01.815Z,9.05
2019-02-25T00:35:06.258Z,8.53
2019-02-25T00:36:09.856Z,8.53
2019-02-25T00:37:13.442Z,8.98
2019-02-25T00:38:17.085Z,9.53
2019-02-25T00:39:20.702Z,9.15
2019-02-25T00:40:24.371Z,9.05
2019-02-25T00:41:28.080Z,9.13
2019-02-25T00:42:31.679Z,8.65
2019-02-25T00:43:35.357Z,9.18
2019-02-25T00:44:39.044Z,10.32
2019-02-25T00:45:42.715Z,9.03
2019-02-25T00:46:46.373Z,9.35
2019-02-25T00:47:49.966Z,8.53
2019-02-25T00:48:53.543Z,8.60
2019-02-25T00:49:57.124Z,9.13
2019-02-25T00:51:00.823Z,9.60
2019-02-25T00:52:04.454Z,8.85
2019-02-25T00:53:08.115Z,9.30
2019-02-25T00:54:11.711Z,8.43
2019-02-25T00:55:15.466Z,9.88
2019-02-25T00:56:19.113Z,9.55
2019-02-25T00:57:22.694Z,10.48
2019-02-25T00:58:26.265Z,9.00
2019-02-25T00:59:29.836Z,9.45
2019-02-25T01:00:33.444Z,10.28
2019-02-25T01:01:37.152Z,9.20
2019-02-25T01:02:40.814Z,10.50
2019-02-25T01:03:44.476Z,9.23
2019-02-25T01:04:48.179Z,9.50
2019-02-25T01:05:51.931Z,10.43
2019-02-25T01:06:55.530Z,9.83
2019-02-25T01:07:59.289Z,9.35
2019-02-25T01:09:04.165Z,9.63
2019-02-25T01:10:10.312Z,9.00
2019-02-25T01:11:13.964Z,8.90
2019-02-25T01:12:17.622Z,9.28
2019-02-25T01:13:21.272Z,10.43
2019-02-25T01:14:24.893Z,9.03
2019-02-25T01:15:28.525Z,8.65
2019-02-25T01:16:32.135Z,9.15
2019-02-25T01:17:35.778Z,10.35
2019-02-25T01:18:39.432Z,10.38
2019-02-25T01:19:43.083Z,8.85
2019-02-25T01:20:46.676Z,9.18
2019-02-25T01:21:50.290Z,8.73
2019-02-25T01:22:53.907Z,8.95
2019-02-25T01:23:57.524Z,9.00
2019-02-25T01:25:01.124Z,9.55
2019-02-25T01:26:04.754Z,8.68
2019-02-25T01:27:08.333Z,9.48
2019-02-25T01:28:11.952Z,9.28
2019-02-25T01:29:15.620Z,9.55
2019-02-25T01:30:20.544Z,10.30
2019-02-25T01:31:24.249Z,9.85
2019-02-25T01:32:27.844Z,9.80
2019-02-25T01:33:31.506Z,10.43
2019-02-25T01:34:35.120Z,9.93
2019-02-25T01:35:38.698Z,9.10
2019-02-25T01:36:42.345Z,10.20
2019-02-25T01:37:46.010Z,10.35
2019-02-25T01:38:49.604Z,9.40
2019-02-25T01:39:53.212Z,9.10
2019-02-25T01:40:56.839Z,8.90
2019-02-25T01:42:00.523Z,9.28
2019-02-25T01:43:04.189Z,9.58
2019-02-25T01:44:07.804Z,9.48
2019-02-25T01:45:13.375Z,8.50
2019-02-25T01:46:16.960Z,9.33
2019-02-25T01:47:20.553Z,8.80
2019-02-25T01:48:24.150Z,9.55
2019-02-25T01:49:27.757Z,8.40
2019-02-25T01:50:31.394Z,8.80
2019-02-25T01:51:35.079Z,8.98
2019-02-25T01:52:38.680Z,8.35
2019-02-25T01:53:42.295Z,7.22
2019-02-25T01:54:45.912Z,7.00
2019-02-25T01:55:49.500Z,7.25
2019-02-25T01:56:53.189Z,7.58
2019-02-25T01:57:56.932Z,8.25
2019-02-25T01:59:00.524Z,7.33
2019-02-25T02:00:07.312Z,8.50
2019-02-25T02:01:10.933Z,8.83
2019-02-25T02:02:14.558Z,8.05
2019-02-25T02:03:18.189Z,8.65
2019-02-25T02:04:21.815Z,8.63
2019-02-25T02:05:25.432Z,8.43
2019-02-25T02:06:29.021Z,8.58
2019-02-25T02:07:32.601Z,8.25
2019-02-25T02:08:36.260Z,8.15
2019-02-25T02:09:39.881Z,9.15
2019-02-25T02:10:43.523Z,9.25
2019-02-25T02:11:47.116Z,10.82
2019-02-25T02:12:50.747Z,9.88
2019-02-25T02:13:54.331Z,10.55
2019-02-25T02:14:57.919Z,11.70
2019-02-25T02:16:01.551Z,10.65
2019-02-25T02:17:05.234Z,10.28
2019-02-25T02:18:08.869Z,10.50
2019-02-25T02:19:12.459Z,9.50
2019-02-25T02:20:17.156Z,11.65
2019-02-25T02:21:20.771Z,10.50
2019-02-25T02:22:24.361Z,9.90
2019-02-25T02:23:28.030Z,9.48
2019-02-25T02:24:31.664Z,8.85
2019-02-25T02:25:35.257Z,8.35
2019-02-25T02:26:38.873Z,9.40
2019-02-25T02:27:42.522Z,8.93
2019-02-25T02:28:46.185Z,9.65
2019-02-25T02:29:49.853Z,8.68
2019-02-25T02:30:53.434Z,8.88
2019-02-25T02:31:57.090Z,8.30
2019-02-25T02:33:00.695Z,8.35
2019-02-25T02:34:04.321Z,8.48
2019-02-25T02:35:08.006Z,8.73
2019-02-25T02:36:11.889Z,8.28
2019-02-25T02:37:15.562Z,9.18
2019-02-25T02:38:19.236Z,9.15
2019-02-25T02:39:22.853Z,8.90
2019-02-25T02:40:26.534Z,8.45
2019-02-25T02:41:31.697Z,7.60
2019-02-25T02:42:35.349Z,9.73
2019-02-25T02:43:38.975Z,9.30
2019-02-25T02:44:44.230Z,8.70
2019-02-25T02:46:03.021Z,9.68
2019-02-25T02:47:24.614Z,10.35
2019-02-25T02:48:37.226Z,9.08
2019-02-25T02:49:40.835Z,8.48
2019-02-25T02:50:44.434Z,9.90
2019-02-25T02:51:48.050Z,9.03
2019-02-25T02:52:51.711Z,9.40
2019-02-25T02:53:55.340Z,9.45
2019-02-25T02:54:58.936Z,10.25
2019-02-25T02:56:02.555Z,10.70
2019-02-25T02:57:06.233Z,10.23
2019-02-25T02:58:09.862Z,10.18
2019-02-25T02:59:13.500Z,10.20
2019-02-25T03:00:18.533Z,9.88
2019-02-25T03:01:22.113Z,9.93
2019-02-25T03:02:25.734Z,9.80
2019-02-25T03:03:29.380Z,9.95
2019-02-25T03:04:32.984Z,8.98
2019-02-25T03:05:36.620Z,9.38
2019-02-25T03:06:40.204Z,9.28
2019-02-25T03:07:43.887Z,9.53
2019-02-25T03:08:47.500Z,9.60
2019-02-25T03:09:51.168Z,10.15
2019-02-25T03:10:54.791Z,9.90
2019-02-25T03:11:58.377Z,9.50
2019-02-25T03:13:01.980Z,9.40
2019-02-25T03:14:05.557Z,9.53
2019-02-25T03:15:12.238Z,10.18
2019-02-25T03:16:15.922Z,7.97
2019-02-25T03:17:19.506Z,8.68
2019-02-25T03:18:23.129Z,9.23
2019-02-25T03:19:26.781Z,8.95
2019-02-25T03:20:30.369Z,8.10
2019-02-25T03:21:34.034Z,7.95
2019-02-25T03:22:37.622Z,7.83
2019-02-25T03:23:41.241Z,8.35
2019-02-25T03:24:44.829Z,8.23
2019-02-25T03:25:48.412Z,7.78
2019-02-25T03:26:52.025Z,6.90
2019-02-25T03:27:55.627Z,8.25
2019-02-25T03:28:59.233Z,8.18
2019-02-25T03:30:03.042Z,6.85
2019-02-25T03:31:06.639Z,7.55
2019-02-25T03:32:10.236Z,6.60
2019-02-25T03:33:13.805Z,6.70
2019-02-25T03:34:17.474Z,7.37
2019-02-25T03:35:21.134Z,7.67
2019-02-25T03:36:24.744Z,7.37
2019-02-25T03:37:28.383Z,7.25
2019-02-25T03:38:32.096Z,7.95
2019-02-25T03:39:35.728Z,8.93
2019-02-25T03:40:39.334Z,8.40
2019-02-25T03:41:42.909Z,8.23
2019-02-25T03:42:46.582Z,7.05
2019-02-25T03:43:50.202Z,6.67
2019-02-25T03:44:53.862Z,7.75
2019-02-25T03:45:57.486Z,7.20
2019-02-25T03:47:01.084Z,8.20
2019-02-25T03:48:04.749Z,7.70
2019-02-25T03:49:08.408Z,8.30
2019-02-25T03:50:12.171Z,9.55
2019-02-25T03:51:15.768Z,9.55
2019-02-25T03:52:19.360Z,9.80
2019-02-25T03:53:23.010Z,10.32
2019-02-25T03:54:26.657Z,10.90
2019-02-25T03:55:30.315Z,10.48
2019-02-25T03:56:33.911Z,9.45
2019-02-25T03:57:37.675Z,9.30
2019-02-25T03:58:41.342Z,9.35
2019-02-25T03:59:44.994Z,9.18
2019-02-25T04:00:48.631Z,9.65
2019-02-25T04:01:52.217Z,9.60
2019-02-25T04:02:55.909Z,11.30
2019-02-25T04:03:59.493Z,10.13
2019-02-25T04:05:03.171Z,9.03
2019-02-25T04:06:06.855Z,9.28
2019-02-25T04:07:10.460Z,9.85
2019-02-25T04:08:14.144Z,10.40
2019-02-25T04:09:17.814Z,10.00
2019-02-25T04:10:21.569Z,9.75
2019-02-25T04:11:25.208Z,9.60
2019-02-25T04:12:28.837Z,10.63
2019-02-25T04:13:32.429Z,9.85
2019-02-25T04:14:36.071Z,9.55
2019-02-25T04:15:41.334Z,10.10
2019-02-25T04:16:45.521Z,9.68
2019-02-25T04:17:49.195Z,9.90
2019-02-25T04:18:52.969Z,10.08
2019-02-25T04:19:56.554Z,8.98
2019-02-25T04:21:00.135Z,10.28
2019-02-25T04:22:03.863Z,9.88
2019-02-25T04:23:07.498Z,10.70
2019-02-25T04:24:11.144Z,10.82
2019-02-25T04:25:14.825Z,9.45
2019-02-25T04:26:18.423Z,8.78
2019-02-25T04:27:22.023Z,9.65
2019-02-25T04:28:25.639Z,9.43
2019-02-25T04:29:29.259Z,9.90
2019-02-25T04:30:32.882Z,10.10
2019-02-25T04:31:36.538Z,10.10
2019-02-25T04:32:40.276Z,10.20
2019-02-25T04:33:43.875Z,10.32
2019-02-25T04:34:47.468Z,9.83
2019-02-25T04:35:51.094Z,10.70
2019-02-25T04:36:54.743Z,10.93
2019-02-25T04:37:58.346Z,10.25
2019-02-25T04:39:01.949Z,10.48
2019-02-25T04:40:08.375Z,9.78
2019-02-25T04:41:11.919Z,8.93
2019-02-25T04:42:15.502Z,11.03
2019-02-25T04:43:19.090Z,10.68
2019-02-25T04:44:22.691Z,10.20
2019-02-25T04:45:26.389Z,9.45
2019-02-25T04:46:30.003Z,9.90
2019-02-25T04:47:33.612Z,9.75
2019-02-25T04:48:37.225Z,10.05
2019-02-25T04:49:40.847Z,9.23
2019-02-25T04:50:44.469Z,9.25
2019-02-25T04:51:48.051Z,9.63
2019-02-25T04:52:51.635Z,10.93
2019-02-25T04:53:55.259Z,8.95
2019-02-25T04:54:58.907Z,9.13
2019-02-25T04:56:02.538Z,9.90
2019-02-25T04:57:06.150Z,8.60
2019-02-25T04:58:09.792Z,7.78
2019-02-25T04:59:13.386Z,9.90
2019-02-25T05:00:22.407Z,9.08
2019-02-25T05:01:25.995Z,9.55
2019-02-25T05:02:29.585Z,8.63
2019-02-25T05:03:33.188Z,7.50
2019-02-25T05:04:36.816Z,9.68
2019-02-25T05:05:40.460Z,8.25
2019-02-25T05:06:44.073Z,8.60
2019-02-25T05:07:47.673Z,8.58
2019-02-25T05:08:51.263Z,8.38
2019-02-25T05:09:54.865Z,8.45
2019-02-25T05:10:58.489Z,7.87
2019-02-25T05:12:02.183Z,8.03
2019-02-25T05:13:06.870Z,7.92
2019-02-25T05:14:10.458Z,7.95
2019-02-25T05:15:19.025Z,7.72
2019-02-25T05:16:22.678Z,8.15
2019-02-25T05:17:26.401Z,7.83
2019-02-25T05:18:30.094Z,7.87
2019-02-25T05:19:33.742Z,6.87
2019-02-25T05:20:37.348Z,6.58
2019-02-25T05:21:40.956Z,7.97
2019-02-25T05:22:44.623Z,7.65
2019-02-25T05:23:48.217Z,8.75
2019-02-25T05:24:51.906Z,8.28
2019-02-25T05:25:55.489Z,8.45
2019-02-25T05:26:59.132Z,9.18
2019-02-25T05:28:02.705Z,10.53
2019-02-25T05:29:06.352Z,11.90
2019-02-25T05:30:12.571Z,10.78
2019-02-25T05:31:16.154Z,9.85
2019-02-25T05:32:19.740Z,9.40
2019-02-25T05:33:23.359Z,8.18
2019-02-25T05:34:26.941Z,8.73
2019-02-25T05:35:30.546Z,8.28
2019-02-25T05:36:34.135Z,7.60
2019-02-25T05:37:37.764Z,8.45
2019-02-25T05:38:41.483Z,8.25
2019-02-25T05:39:45.127Z,7.80
2019-02-25T05:40:48.707Z,6.92
2019-02-25T05:41:52.357Z,9.50
2019-02-25T05:42:55.925Z,9.05
2019-02-25T05:43:59.560Z,9.65
2019-02-25T05:45:03.155Z,11.90
2019-02-25T05:46:06.736Z,11.95
2019-02-25T05:47:10.358Z,12.47
2019-02-25T05:48:14.020Z,13.72
2019-02-25T05:49:17.626Z,11.25
2019-02-25T05:50:21.964Z,12.00
2019-02-25T05:51:25.582Z,11.40
2019-02-25T05:52:29.235Z,11.80
2019-02-25T05:53:32.926Z,11.90
2019-02-25T05:54:36.596Z,11.88
2019-02-25T05:55:40.270Z,12.30
2019-02-25T05:56:44.266Z,11.70
2019-02-25T05:57:47.848Z,11.68
2019-02-25T05:58:51.483Z,9.98
2019-02-25T05:59:55.111Z,10.18
2019-02-25T06:00:58.706Z,10.00
2019-02-25T06:02:02.321Z,9.53
2019-02-25T06:03:06.038Z,10.30
2019-02-25T06:04:09.750Z,9.50
2019-02-25T06:05:13.338Z,8.50
2019-02-25T06:06:16.979Z,9.00
2019-02-25T06:07:20.601Z,9.95
2019-02-25T06:08:24.251Z,9.90
2019-02-25T06:09:27.902Z,10.68
2019-02-25T06:10:31.509Z,9.50
2019-02-25T06:11:35.107Z,10.08
2019-02-25T06:12:38.720Z,9.50
2019-02-25T06:13:42.419Z,9.75
2019-02-25T06:14:46.042Z,10.15
2019-02-25T06:15:51.316Z,9.58
2019-02-25T06:16:55.161Z,11.25
2019-02-25T06:17:59.121Z,9.65
2019-02-25T06:19:02.738Z,9.93
2019-02-25T06:20:12.077Z,9.98
2019-02-25T06:21:15.840Z,8.88
2019-02-25T06:22:19.479Z,10.38
2019-02-25T06:23:23.088Z,10.40
2019-02-25T06:24:26.679Z,11.20
2019-02-25T06:25:30.760Z,10.03
2019-02-25T06:26:35.170Z,9.48
2019-02-25T06:27:38.755Z,11.00
2019-02-25T06:28:42.442Z,10.20
2019-02-25T06:29:46.515Z,9.85
2019-02-25T06:30:50.195Z,9.58
2019-02-25T06:31:54.204Z,9.98
2019-02-25T06:32:57.830Z,8.50
2019-02-25T06:34:01.430Z,9.48
2019-02-25T06:35:06.778Z,9.70
2019-02-25T06:36:10.624Z,10.63
2019-02-25T06:37:14.251Z,10.15
2019-02-25T06:38:17.895Z,9.50
2019-02-25T06:39:21.569Z,8.93
2019-02-25T06:40:25.176Z,10.32
2019-02-25T06:41:28.826Z,9.90
2019-02-25T06:42:32.431Z,10.43
2019-02-25T06:43:35.999Z,11.28
2019-02-25T06:44:39.523Z,11.55
2019-02-25T06:45:43.164Z,12.90
2019-02-25T06:46:46.878Z,11.73
2019-02-25T06:47:50.469Z,11.70
2019-02-25T06:48:54.082Z,12.90
2019-02-25T06:49:57.684Z,12.55
2019-02-25T06:51:01.329Z,12.43
2019-02-25T06:52:05.004Z,11.90
2019-02-25T06:53:08.650Z,11.55
2019-02-25T06:54:12.247Z,9.83
2019-02-25T06:55:16.651Z,10.28
2019-02-25T06:56:20.281Z,9.38
2019-02-25T06:57:23.891Z,9.95
2019-02-25T06:58:27.535Z,8.85
2019-02-25T06:59:31.153Z,9.50
2019-02-25T07:00:34.735Z,9.03
2019-02-25T07:01:38.459Z,10.50
2019-02-25T07:02:42.034Z,8.95
2019-02-25T07:03:47.415Z,8.93
2019-02-25T07:04:52.665Z,9.18
2019-02-25T07:06:03.549Z,10.18
2019-02-25T07:07:08.776Z,10.10
2019-02-25T07:08:14.100Z,8.43
2019-02-25T07:09:19.402Z,10.05
2019-02-25T07:10:33.693Z,9.75
2019-02-25T07:11:41.501Z,9.03
2019-02-25T07:12:46.752Z,8.80
2019-02-25T07:13:54.886Z,8.28
2019-02-25T07:15:00.303Z,9.50
2019-02-25T07:16:05.781Z,9.10
2019-02-25T07:17:27.428Z,9.03
2019-02-25T07:18:38.223Z,9.23
2019-02-25T07:19:46.757Z,8.38
2019-02-25T07:20:52.046Z,9.55
2019-02-25T07:21:59.810Z,9.50
2019-02-25T07:23:07.740Z,9.65
2019-02-25T07:24:21.762Z,9.05
2019-02-25T07:25:43.399Z,9.75
2019-02-25T07:26:57.618Z,8.50
2019-02-25T07:28:11.601Z,9.43
2019-02-25T07:29:25.752Z,9.33
2019-02-25T07:30:33.656Z,9.90
2019-02-25T07:31:48.070Z,9.85
2019-02-25T07:32:56.131Z,10.10
2019-02-25T07:34:13.449Z,10.55
2019-02-25T07:35:21.624Z,11.45
2019-02-25T07:36:32.447Z,12.63
2019-02-25T07:37:54.034Z,11.55
2019-02-25T07:38:59.305Z,12.30
2019-02-25T07:40:21.216Z,12.63
2019-02-25T07:41:32.234Z,10.75
2019-02-25T07:42:52.704Z,9.53
2019-02-25T07:43:57.960Z,9.35
2019-02-25T07:45:11.885Z,9.58
2019-02-25T07:46:22.976Z,10.72
2019-02-25T07:47:28.680Z,9.15
2019-02-25T07:48:42.952Z,10.78
2019-02-25T07:49:51.000Z,9.53
2019-02-25T07:50:56.229Z,9.10
2019-02-25T07:52:13.272Z,9.40
2019-02-25T07:53:30.450Z,8.38
2019-02-25T07:54:35.778Z,9.68
2019-02-25T07:55:40.994Z,9.23
2019-02-25T07:56:46.242Z,10.80
2019-02-25T07:57:53.991Z,9.13
2019-02-25T07:59:15.439Z,8.75
2019-02-25T08:00:26.702Z,8.45
2019-02-25T08:01:31.963Z,9.05
2019-02-25T08:02:39.905Z,9.45
2019-02-25T08:03:53.882Z,9.38
2019-02-25T08:04:59.104Z,8.78
2019-02-25T08:06:04.414Z,8.78
2019-02-25T08:07:18.398Z,8.45
2019-02-25T08:08:26.426Z,8.23
2019-02-25T08:09:31.708Z,9.03
2019-02-25T08:10:45.512Z,8.58
2019-02-25T08:11:59.783Z,8.80
2019-02-25T08:13:07.876Z,9.50
2019-02-25T08:14:18.825Z,9.40
2019-02-25T08:15:24.075Z,9.03
2019-02-25T08:16:29.326Z,9.00
2019-02-25T08:17:34.558Z,9.30
2019-02-25T08:18:55.960Z,9.40
2019-02-25T08:20:04.016Z,9.30
2019-02-25T08:21:09.253Z,9.35
2019-02-25T08:22:29.672Z,8.90
2019-02-25T08:23:34.992Z,8.80
2019-02-25T08:24:55.219Z,8.90
2019-02-25T08:26:12.461Z,9.10
2019-02-25T08:27:23.173Z,8.13
2019-02-25T08:28:32.631Z,9.15
2019-02-25T08:29:46.551Z,9.28
2019-02-25T08:30:57.599Z,8.28
2019-02-25T08:32:02.865Z,8.90
2019-02-25T08:33:14.067Z,8.40
2019-02-25T08:34:22.006Z,8.60
2019-02-25T08:35:48.494Z,9.43
2019-02-25T08:37:14.791Z,8.58
2019-02-25T08:38:25.468Z,8.73
2019-02-25T08:39:33.767Z,8.85
2019-02-25T08:40:42.131Z,10.30
2019-02-25T08:41:59.207Z,9.33
2019-02-25T08:43:18.421Z,10.28
2019-02-25T08:44:26.788Z,10.15
2019-02-25T08:45:32.046Z,9.68
2019-02-25T08:46:37.393Z,9.35
2019-02-25T08:47:48.507Z,8.95
2019-02-25T08:48:53.739Z,8.78
2019-02-25T08:49:57.441Z,8.85
2019-02-25T08:51:01.219Z,8.80
2019-02-25T08:52:04.936Z,8.90
2019-02-25T08:53:08.539Z,9.10
2019-02-25T08:54:12.132Z,8.18
2019-02-25T08:55:15.737Z,7.90
2019-02-25T08:56:19.318Z,8.70
2019-02-25T08:57:23.039Z,8.05
2019-02-25T08:58:26.739Z,8.75
2019-02-25T08:59:30.367Z,8.40
2019-02-25T09:00:34.026Z,9.05
2019-02-25T09:01:37.613Z,7.75
2019-02-25T09:02:41.236Z,9.18
2019-02-25T09:03:44.834Z,10.00
2019-02-25T09:04:49.296Z,8.13
2019-02-25T09:05:52.950Z,8.23
2019-02-25T09:06:56.579Z,9.60
2019-02-25T09:08:00.275Z,9.20
2019-02-25T09:09:05.611Z,9.33
2019-02-25T09:10:13.432Z,8.90
2019-02-25T09:11:17.257Z,8.63
2019-02-25T09:12:20.882Z,10.10
2019-02-25T09:13:24.472Z,11.18
2019-02-25T09:14:28.087Z,9.35
2019-02-25T09:15:32.512Z,8.75
2019-02-25T09:16:36.229Z,9.15
2019-02-25T09:17:45.689Z,7.00
2019-02-25T09:18:49.356Z,8.88
2019-02-25T09:19:53.062Z,8.80
2019-02-25T09:20:56.660Z,8.88
2019-02-25T09:22:00.246Z,8.68
2019-02-25T09:23:03.819Z,9.75
2019-02-25T09:24:07.441Z,9.60
2019-02-25T09:25:14.913Z,7.95
2019-02-25T09:26:18.481Z,9.10
2019-02-25T09:27:22.076Z,8.53
2019-02-25T09:28:25.723Z,8.70
2019-02-25T09:29:29.299Z,8.60
2019-02-25T09:30:32.915Z,8.38
2019-02-25T09:31:36.574Z,8.15
2019-02-25T09:32:40.181Z,8.63
2019-02-25T09:33:43.818Z,9.15
2019-02-25T09:34:47.459Z,8.30
2019-02-25T09:35:51.015Z,8.10
2019-02-25T09:36:54.613Z,8.88
2019-02-25T09:37:58.249Z,8.30
2019-02-25T09:39:01.829Z,8.53
2019-02-25T09:40:14.483Z,7.58
2019-02-25T09:41:18.072Z,9.83
2019-02-25T09:42:21.695Z,8.95
2019-02-25T09:43:25.370Z,8.73
2019-02-25T09:44:28.924Z,9.00
2019-02-25T09:45:32.679Z,8.35
2019-02-25T09:46:36.289Z,8.93
2019-02-25T09:47:39.889Z,9.33
2019-02-25T09:48:43.465Z,8.78
2019-02-25T09:49:47.096Z,8.75
2019-02-25T09:50:50.790Z,9.18
2019-02-25T09:51:54.399Z,8.65
2019-02-25T09:52:58.043Z,9.00
2019-02-25T09:54:01.664Z,8.70
2019-02-25T09:55:07.706Z,8.05
2019-02-25T09:56:11.302Z,8.50
2019-02-25T09:57:14.957Z,7.90
2019-02-25T09:58:18.614Z,8.15
2019-02-25T09:59:22.217Z,7.92
2019-02-25T10:00:25.818Z,8.10
2019-02-25T10:01:29.440Z,8.13
2019-02-25T10:02:33.034Z,8.55
2019-02-25T10:03:36.645Z,8.80
2019-02-25T10:04:40.228Z,9.68
2019-02-25T10:05:43.810Z,8.70
2019-02-25T10:06:47.448Z,8.47
2019-02-25T10:07:51.052Z,8.13
2019-02-25T10:08:54.692Z,8.40
2019-02-25T10:09:58.295Z,8.57
2019-02-25T10:11:01.882Z,8.57
2019-02-25T10:12:05.567Z,8.93
2019-02-25T10:13:09.252Z,9.07
2019-02-25T10:14:12.839Z,8.73
2019-02-25T10:15:21.182Z,8.97
2019-02-25T10:16:24.860Z,9.50
2019-02-25T10:17:28.471Z,8.40
2019-02-25T10:18:32.276Z,9.43
2019-02-25T10:19:35.862Z,8.97
2019-02-25T10:20:39.459Z,8.17
2019-02-25T10:21:43.108Z,9.23
2019-02-25T10:22:46.735Z,9.07
2019-02-25T10:23:50.316Z,9.13
2019-02-25T10:24:53.918Z,8.70
2019-02-25T10:25:57.556Z,8.40
2019-02-25T10:27:01.223Z,8.47
2019-02-25T10:28:04.893Z,8.80
2019-02-25T10:29:08.532Z,8.30
2019-02-25T10:30:14.684Z,8.50
2019-02-25T10:31:18.256Z,8.37
2019-02-25T10:32:23.668Z,9.17
2019-02-25T10:33:27.210Z,8.43
2019-02-25T10:34:30.798Z,8.90
2019-02-25T10:35:34.385Z,8.63
2019-02-25T10:36:37.977Z,8.50
2019-02-25T10:37:43.676Z,8.20
2019-02-25T10:38:46.894Z,8.83
2019-02-25T10:39:51.466Z,8.60
2019-02-25T10:40:55.066Z,8.73
2019-02-25T10:41:59.641Z,9.30
2019-02-25T10:43:04.052Z,9.03
2019-02-25T10:44:08.495Z,8.50
2019-02-25T10:45:17.142Z,8.83
2019-02-25T10:46:20.809Z,8.57
2019-02-25T10:47:24.419Z,9.23
2019-02-25T10:48:28.011Z,10.27
2019-02-25T10:49:33.570Z,12.80
2019-02-25T10:50:38.640Z,7.80
2019-02-25T10:51:43.938Z,8.63
2019-02-25T10:52:49.382Z,9.20
2019-02-25T10:53:53.632Z,8.93
2019-02-25T10:54:58.289Z,8.60
2019-02-25T10:56:14.441Z,8.80
2019-02-25T10:57:19.347Z,8.40
2019-02-25T10:58:25.186Z,8.40
2019-02-25T10:59:29.847Z,8.83
2019-02-25T11:00:35.197Z,8.47
2019-02-25T11:01:41.290Z,8.37
2019-02-25T11:02:46.784Z,8.93
2019-02-25T11:03:52.050Z,9.23
2019-02-25T11:04:56.087Z,9.53
2019-02-25T11:06:02.864Z,8.40
2019-02-25T11:07:07.833Z,9.43
2019-02-25T11:08:13.872Z,9.33
2019-02-25T11:09:31.369Z,9.30
2019-02-25T11:10:36.752Z,9.67
2019-02-25T11:11:41.514Z,8.90
2019-02-25T11:12:45.197Z,9.13
2019-02-25T11:13:48.896Z,8.97
2019-02-25T11:14:52.559Z,8.73
2019-02-25T11:15:56.146Z,9.13
2019-02-25T11:16:59.829Z,9.57
2019-02-25T11:18:03.663Z,10.03
2019-02-25T11:19:07.476Z,9.50
2019-02-25T11:20:14.393Z,10.15
2019-02-25T11:21:17.999Z,10.05
2019-02-25T11:22:21.607Z,9.03
2019-02-25T11:23:25.195Z,9.45
2019-02-25T11:24:28.820Z,9.65
2019-02-25T11:25:32.416Z,10.18
2019-02-25T11:26:37.013Z,13.25
2019-02-25T11:27:40.999Z,11.12
2019-02-25T11:28:44.675Z,9.00
2019-02-25T11:29:48.515Z,9.65
2019-02-25T11:30:53.743Z,9.20
2019-02-25T11:31:57.495Z,9.78
2019-02-25T11:33:01.092Z,9.28
2019-02-25T11:34:05.794Z,8.35
2019-02-25T11:35:12.995Z,9.35
2019-02-25T11:36:17.712Z,9.00
2019-02-25T11:37:24.483Z,10.78
2019-02-25T11:38:28.688Z,8.88
2019-02-25T11:39:33.187Z,9.60
2019-02-25T11:40:38.406Z,8.73
2019-02-25T11:41:41.996Z,8.85
2019-02-25T11:42:45.722Z,9.03
2019-02-25T11:43:50.972Z,9.75
2019-02-25T11:44:56.499Z,8.80
2019-02-25T11:45:59.881Z,8.73
2019-02-25T11:47:03.525Z,8.20
2019-02-25T11:48:07.140Z,8.80
2019-02-25T11:49:10.751Z,8.88
2019-02-25T11:50:19.041Z,10.18
2019-02-25T11:51:22.790Z,9.63
2019-02-25T11:52:26.474Z,8.80
2019-02-25T11:53:30.067Z,9.58
2019-02-25T11:54:33.611Z,9.68
2019-02-25T11:55:37.320Z,8.90
2019-02-25T11:56:41.048Z,9.03
2019-02-25T11:57:44.929Z,9.88
2019-02-25T11:58:48.544Z,9.33
2019-02-25T11:59:52.141Z,9.60
2019-02-25T12:00:55.775Z,11.10
2019-02-25T12:01:59.377Z,9.55
2019-02-25T12:03:02.987Z,8.23
2019-02-25T12:04:06.707Z,9.20
2019-02-25T12:05:11.029Z,7.70
2019-02-25T12:06:14.660Z,8.77
2019-02-25T12:07:18.375Z,7.80
2019-02-25T12:08:21.980Z,9.63
2019-02-25T12:09:25.588Z,8.70
2019-02-25T12:10:29.173Z,8.87
2019-02-25T12:11:32.855Z,8.03
2019-02-25T12:12:36.444Z,9.83
2019-02-25T12:13:40.029Z,8.37
2019-02-25T12:14:43.636Z,8.57
2019-02-25T12:15:47.240Z,8.83
2019-02-25T12:16:50.861Z,8.30
2019-02-25T12:17:54.526Z,9.27
2019-02-25T12:18:58.135Z,8.57
2019-02-25T12:20:01.736Z,8.60
2019-02-25T12:21:05.981Z,9.40
2019-02-25T12:22:09.586Z,9.10
2019-02-25T12:23:13.182Z,7.77
2019-02-25T12:24:16.836Z,8.20
2019-02-25T12:25:22.685Z,8.27
2019-02-25T12:26:26.280Z,7.50
2019-02-25T12:27:29.857Z,7.60
2019-02-25T12:28:33.433Z,8.30
2019-02-25T12:29:37.131Z,7.57
2019-02-25T12:30:40.842Z,8.17
2019-02-25T12:31:44.434Z,8.27
2019-02-25T12:32:48.043Z,7.60
2019-02-25T12:33:51.668Z,8.27
2019-02-25T12:34:55.278Z,8.30
2019-02-25T12:35:58.868Z,7.27
2019-02-25T12:37:02.485Z,7.80
2019-02-25T12:38:06.098Z,6.40
2019-02-25T12:39:09.725Z,7.07
2019-02-25T12:40:14.767Z,5.60
2019-02-25T12:41:18.385Z,5.30
2019-02-25T12:42:22.125Z,5.17
2019-02-25T12:43:25.739Z,5.60
2019-02-25T12:44:29.354Z,4.60
2019-02-25T12:45:32.957Z,3.00
2019-02-25T12:46:36.568Z,4.90
2019-02-25T12:47:40.272Z,4.30
2019-02-25T12:48:43.882Z,4.97
2019-02-25T12:49:47.482Z,4.87
2019-02-25T12:50:51.117Z,5.03
2019-02-25T12:51:54.750Z,4.97
2019-02-25T12:52:58.325Z,4.70
2019-02-25T12:54:01.964Z,4.07
2019-02-25T12:55:08.804Z,5.50
2019-02-25T12:56:12.397Z,4.80
2019-02-25T12:57:16.037Z,4.83
2019-02-25T12:58:19.654Z,5.20
2019-02-25T12:59:23.237Z,4.73
2019-02-25T13:00:26.967Z,4.90
2019-02-25T13:01:30.557Z,5.50
2019-02-25T13:02:34.200Z,5.23
2019-02-25T13:03:37.782Z,4.40
2019-02-25T13:04:41.388Z,4.70
2019-02-25T13:05:45.127Z,6.60
2019-02-25T13:06:48.714Z,5.00
2019-02-25T13:07:52.305Z,5.20
2019-02-25T13:08:55.884Z,4.67
2019-02-25T13:09:59.489Z,5.13
2019-02-25T13:11:03.107Z,5.47
2019-02-25T13:12:06.692Z,5.07
2019-02-25T13:13:10.291Z,6.03
2019-02-25T13:14:13.919Z,5.30
2019-02-25T13:15:18.664Z,5.00
2019-02-25T13:16:22.241Z,4.93
2019-02-25T13:17:25.881Z,4.50
2019-02-25T13:18:29.460Z,4.90
2019-02-25T13:19:33.064Z,5.07
2019-02-25T13:20:36.663Z,4.97
2019-02-25T13:21:40.367Z,6.83
2019-02-25T13:22:43.914Z,5.00
2019-02-25T13:23:47.526Z,5.03
2019-02-25T13:24:51.148Z,4.23
2019-02-25T13:25:54.799Z,4.67
2019-02-25T13:26:58.396Z,4.37
2019-02-25T13:28:04.044Z,4.07
2019-02-25T13:29:07.248Z,4.83
2019-02-25T13:30:15.461Z,4.30
2019-02-25T13:31:19.065Z,4.77
2019-02-25T13:32:22.656Z,4.67
2019-02-25T13:33:26.493Z,4.90
2019-02-25T13:34:30.283Z,5.03
2019-02-25T13:35:33.858Z,4.87
2019-02-25T13:36:37.456Z,4.93
2019-02-25T13:37:41.107Z,4.27
2019-02-25T13:38:44.754Z,4.50
2019-02-25T13:39:48.347Z,4.70
2019-02-25T13:40:51.963Z,4.93
2019-02-25T13:41:55.582Z,5.10
2019-02-25T13:42:59.312Z,5.30
2019-02-25T13:44:02.898Z,5.20
2019-02-25T13:45:09.673Z,4.90
2019-02-25T13:46:13.261Z,4.60
2019-02-25T13:47:17.087Z,5.47
2019-02-25T13:48:20.705Z,4.97
2019-02-25T13:49:24.302Z,5.10
2019-02-25T13:50:27.900Z,4.97
2019-02-25T13:51:31.528Z,4.40
2019-02-25T13:52:35.115Z,5.00
2019-02-25T13:53:38.695Z,4.60
2019-02-25T13:54:42.299Z,4.30
2019-02-25T13:55:45.873Z,5.10
2019-02-25T13:56:49.497Z,4.50
2019-02-25T13:57:53.191Z,4.30
2019-02-25T13:58:56.954Z,4.50
2019-02-25T14:00:01.180Z,4.77
2019-02-25T14:01:04.995Z,4.90
2019-02-25T14:02:08.575Z,4.83
2019-02-25T14:03:12.350Z,4.77
2019-02-25T14:04:15.995Z,5.40
2019-02-25T14:05:19.934Z,4.40
2019-02-25T14:06:23.496Z,4.67
2019-02-25T14:07:27.122Z,5.23
2019-02-25T14:08:30.733Z,5.53
2019-02-25T14:09:34.377Z,4.90
2019-02-25T14:10:38.037Z,5.37
2019-02-25T14:11:41.625Z,4.70
2019-02-25T14:12:45.544Z,4.17
2019-02-25T14:13:49.263Z,4.50
2019-02-25T14:14:52.873Z,4.63
2019-02-25T14:15:56.551Z,4.20
2019-02-25T14:17:00.138Z,4.27